Time;durP1;ratioP1;P1;durP2;ratioP2;P2;SDS_P1;SDS_P2;PMS_P1;PMS_P2;Temp;Humidity;BMP_temperature;BMP_pressure;BME280_temperature;BME280_humidity;BME280_pressure;Samples;Min_cycle;Max_cycle;Signal;HPM_P1;HPM_P2
2021/01/06 00:01:05;;;;;;;6.45;5.40;;;;;;;10.92;66.73;101590.22;1736938;82;21151;-47
2021/01/06 00:03:33;;;;;;;6.90;6.08;;;;;;;10.89;66.80;101592.41;1734787;82;21139;-47
2021/01/06 00:06:09;;;;;;;7.00;6.30;;;;;;;10.89;66.76;101598.05;1736378;82;21539;-47
2021/01/06 00:08:37;;;;;;;6.95;5.47;;;;;;;10.87;66.83;101603.70;1737776;82;21132;-46
2021/01/06 00:11:05;;;;;;;7.15;5.65;;;;;;;10.83;66.93;101604.19;1731826;82;21158;-47
2021/01/06 00:13:33;;;;;;;7.25;6.25;;;;;;;10.82;66.97;101611.56;1736029;82;21187;-47
2021/01/06 00:16:01;;;;;;;7.90;6.10;;;;;;;10.81;66.95;101614.19;1736083;82;21184;-47
2021/01/06 00:18:29;;;;;;;8.95;5.80;;;;;;;10.79;66.91;101619.41;1734576;82;21142;-47
2021/01/06 00:20:58;;;;;;;6.80;6.05;;;;;;;10.77;67.00;101621.16;1734877;82;21142;-47
2021/01/06 00:23:26;;;;;;;6.67;5.65;;;;;;;10.75;67.00;101625.52;1736157;82;21263;-47
2021/01/06 00:25:56;;;;;;;7.60;5.83;;;;;;;10.74;67.11;101622.94;1737609;82;21131;-47
2021/01/06 00:28:24;;;;;;;6.97;6.08;;;;;;;10.72;67.14;101628.14;1738009;82;21578;-47
2021/01/06 00:30:57;;;;;;;7.33;6.05;;;;;;;10.69;67.16;101628.18;1739613;82;21205;-47
2021/01/06 00:33:30;;;;;;;8.33;6.50;;;;;;;10.67;67.19;101631.66;1743463;82;21124;-47
2021/01/06 00:36:02;;;;;;;7.60;6.08;;;;;;;10.65;67.30;101629.08;1736026;82;21139;-47
2021/01/06 00:38:31;;;;;;;7.25;6.55;;;;;;;10.64;67.39;101632.55;1737871;82;21179;-47
2021/01/06 00:40:59;;;;;;;6.70;5.95;;;;;;;10.64;67.40;101637.75;1659912;86;21330;-47
2021/01/06 00:43:28;;;;;;;7.42;6.08;;;;;;;10.61;67.30;101645.60;1702066;83;21318;-47
2021/01/06 00:45:56;;;;;;;8.00;6.40;;;;;;;10.58;67.48;101643.01;1660124;86;21136;-47
2021/01/06 00:48:24;;;;;;;13.88;6.22;;;;;;;10.57;67.75;101641.30;1660020;86;21197;-47
2021/01/06 00:50:54;;;;;;;16.45;7.15;;;;;;;10.58;67.85;101635.20;1663750;85;21137;-47
2021/01/06 00:53:26;;;;;;;8.83;6.25;;;;;;;10.59;67.84;101645.59;1749547;81;21164;-47
2021/01/06 00:55:56;;;;;;;7.75;6.25;;;;;;;10.59;67.91;101649.95;1741299;81;21172;-47
2021/01/06 00:58:25;;;;;;;11.05;6.80;;;;;;;10.60;67.96;101652.54;1739350;81;21294;-47
2021/01/06 01:00:54;;;;;;;13.35;6.50;;;;;;;10.63;68.08;101652.95;1747495;81;21592;-47
2021/01/06 01:03:24;;;;;;;11.60;7.75;;;;;;;10.66;68.10;101651.61;1741486;81;21564;-47
2021/01/06 01:05:55;;;;;;;13.68;7.90;;;;;;;10.70;68.01;101661.13;1743530;81;21192;-47
2021/01/06 01:08:23;;;;;;;18.73;7.75;;;;;;;10.72;67.87;101659.38;1743405;81;21164;-47
2021/01/06 01:10:55;;;;;;;9.13;6.70;;;;;;;10.74;67.84;101654.18;1742215;81;21149;-47
2021/01/06 01:13:25;;;;;;;14.65;7.33;;;;;;;10.75;67.81;101663.27;1717501;81;21144;-47
2021/01/06 01:15:56;;;;;;;16.05;8.15;;;;;;;10.76;67.83;101658.47;1745946;81;21156;-47
2021/01/06 01:18:27;;;;;;;16.50;7.37;;;;;;;10.77;67.77;101660.22;1745995;81;21133;-47
2021/01/06 01:20:58;;;;;;;16.15;8.15;;;;;;;10.79;67.73;101661.06;1737603;81;21157;-47
2021/01/06 01:23:28;;;;;;;13.10;7.40;;;;;;;10.81;67.70;101663.22;1750119;81;21164;-47
2021/01/06 01:25:57;;;;;;;15.83;9.50;;;;;;;10.81;67.62;101665.82;1737124;81;21161;-47
2021/01/06 01:28:25;;;;;;;14.10;7.65;;;;;;;10.82;67.65;101666.23;1746543;81;21144;-47
2021/01/06 01:30:55;;;;;;;19.37;8.60;;;;;;;10.82;67.51;101670.14;1742199;81;21161;-47
2021/01/06 01:33:25;;;;;;;19.92;8.03;;;;;;;10.82;67.42;101675.80;1749931;81;21125;-46
2021/01/06 01:35:55;;;;;;;12.18;7.85;;;;;;;10.81;67.29;101680.14;1741938;81;21604;-47
2021/01/06 01:38:26;;;;;;;12.98;8.00;;;;;;;10.80;67.37;101686.20;1740792;81;21128;-47
2021/01/06 01:41:10;;;;;;;12.07;8.03;;;;;;;10.80;67.35;101685.37;1768275;80;21137;-47
2021/01/06 01:43:38;;;;;;;13.70;8.18;;;;;;;10.77;67.30;101675.84;1757353;81;21176;-47
2021/01/06 01:46:15;;;;;;;12.50;7.70;;;;;;;10.77;67.16;101677.14;1761682;81;21188;-47
2021/01/06 01:48:45;;;;;;;10.40;7.45;;;;;;;10.75;67.16;101672.38;1760886;81;21164;-47
2021/01/06 01:51:31;;;;;;;15.63;8.47;;;;;;;10.73;67.14;101670.66;1757382;81;21180;-47
2021/01/06 01:54:09;;;;;;;15.00;9.38;;;;;;;10.71;67.06;101675.88;1755118;81;21180;-47
2021/01/06 01:57:08;;;;;;;12.45;9.33;;;;;;;10.67;67.08;101676.78;1735659;82;21207;-47
2021/01/06 01:59:41;;;;;;;9.23;8.13;;;;;;;10.63;67.09;101675.08;1739250;82;21168;-47
2021/01/06 02:02:20;;;;;;;10.50;7.95;;;;;;;10.63;67.22;101681.13;1771149;79;23085;-47
2021/01/06 02:04:56;;;;;;;9.18;7.53;;;;;;;10.58;67.24;101689.85;1727236;82;21188;-47
2021/01/06 02:07:31;;;;;;;10.50;8.73;;;;;;;10.58;67.22;101691.16;1738635;82;21149;-47
2021/01/06 02:10:07;;;;;;;10.78;8.30;;;;;;;10.56;67.08;101684.66;1732000;82;21136;-47
2021/01/06 02:12:46;;;;;;;9.53;8.33;;;;;;;10.54;67.03;101689.02;1687976;84;21228;-47
2021/01/06 02:15:48;;;;;;;9.80;7.70;;;;;;;10.59;67.09;101695.50;1810214;79;22957;-47
2021/01/06 02:18:16;;;;;;;11.57;8.50;;;;;;;10.53;67.12;101702.05;1780044;80;21218;-47
2021/01/06 02:21:01;;;;;;;13.72;9.78;;;;;;;10.52;67.12;101702.91;1778091;80;21357;-47
2021/01/06 02:23:35;;;;;;;11.28;8.20;;;;;;;10.55;66.95;101708.11;1809977;79;22985;-47
2021/01/06 02:26:03;;;;;;;10.55;8.78;;;;;;;10.48;66.87;101709.88;1777798;80;21275;-46
2021/01/06 02:28:31;;;;;;;9.40;8.25;;;;;;;10.44;66.98;101705.56;1776822;80;21156;-46
2021/01/06 02:31:00;;;;;;;10.15;8.85;;;;;;;10.39;67.04;101705.14;1775539;80;21168;-47
2021/01/06 02:33:28;;;;;;;10.68;8.63;;;;;;;10.37;67.06;101709.50;1770400;80;21132;-48
2021/01/06 02:35:56;;;;;;;10.00;8.95;;;;;;;10.35;67.01;101719.05;1776292;80;21188;-47
2021/01/06 02:38:25;;;;;;;12.00;8.93;;;;;;;10.31;66.99;101719.51;1780383;80;21148;-47
2021/01/06 02:40:53;;;;;;;13.80;9.08;;;;;;;10.29;67.13;101722.98;1775391;80;21277;-47
2021/01/06 02:43:22;;;;;;;10.85;9.28;;;;;;;10.27;67.18;101728.20;1772820;80;21168;-47
2021/01/06 02:45:51;;;;;;;11.25;9.53;;;;;;;10.26;67.20;101732.95;1776902;80;21152;-47
2021/01/06 02:48:20;;;;;;;10.05;9.05;;;;;;;10.25;67.21;101725.17;1776816;80;21573;-47
2021/01/06 02:50:53;;;;;;;11.35;10.10;;;;;;;10.24;67.12;101730.80;1772526;80;21167;-47
2021/01/06 02:53:25;;;;;;;10.75;9.65;;;;;;;10.24;67.04;101736.47;1776574;80;21290;-47
2021/01/06 02:55:53;;;;;;;12.07;10.08;;;;;;;10.20;67.01;101742.09;1783156;80;21140;-47
2021/01/06 02:58:22;;;;;;;11.28;10.15;;;;;;;10.20;66.99;101752.95;1768682;80;21612;-47
2021/01/06 03:00:51;;;;;;;11.73;10.53;;;;;;;10.17;66.80;101752.95;1775183;80;21274;-47
2021/01/06 03:03:22;;;;;;;13.10;11.70;;;;;;;10.13;66.85;101752.55;1780208;80;21147;-47
2021/01/06 03:06:10;;;;;;;11.83;10.63;;;;;;;10.09;66.77;101759.47;1749415;80;21168;-47
2021/01/06 03:08:38;;;;;;;13.98;11.08;;;;;;;10.07;66.85;101764.23;1783968;80;21148;-47
2021/01/06 03:11:07;;;;;;;11.85;10.65;;;;;;;10.04;66.79;101760.33;1784392;80;21192;-46
2021/01/06 03:13:36;;;;;;;13.25;11.53;;;;;;;10.04;66.77;101762.94;1773292;80;21196;-47
2021/01/06 03:16:05;;;;;;;12.88;11.40;;;;;;;9.99;66.74;101766.88;1779360;80;21160;-47
2021/01/06 03:18:33;;;;;;;11.40;10.30;;;;;;;9.97;66.80;101771.64;1780430;80;21128;-47
2021/01/06 03:21:04;;;;;;;12.58;10.43;;;;;;;9.96;66.83;101769.89;1775712;80;21139;-46
2021/01/06 03:23:51;;;;;;;11.80;9.87;;;;;;;9.96;66.79;101769.89;1775466;80;21140;-47
2021/01/06 03:26:23;;;;;;;11.93;10.72;;;;;;;9.92;66.85;101779.45;1777499;80;21137;-47
2021/01/06 03:28:51;;;;;;;15.03;11.70;;;;;;;9.92;66.82;101775.97;1774970;80;21124;-46
2021/01/06 03:31:28;;;;;;;11.45;10.08;;;;;;;9.87;66.87;101772.55;1770498;80;21154;-47
2021/01/06 03:34:07;;;;;;;12.73;11.43;;;;;;;9.85;66.91;101777.72;1737238;81;21572;-47
2021/01/06 03:36:43;;;;;;;12.73;11.25;;;;;;;9.88;66.95;101771.66;1771053;79;23542;-47
2021/01/06 03:39:20;;;;;;;11.83;10.63;;;;;;;9.83;66.81;101777.73;1717518;82;21163;-47
2021/01/06 03:41:48;;;;;;;11.83;10.63;;;;;;;9.82;66.68;101778.62;1744612;82;21192;-47
2021/01/06 03:44:16;;;;;;;12.23;10.93;;;;;;;9.80;66.67;101786.86;1720229;82;21298;-47
2021/01/06 03:47:06;;;;;;;12.55;10.85;;;;;;;9.78;66.64;101791.19;1740291;82;21164;-47
2021/01/06 03:50:00;;;;;;;13.65;11.80;;;;;;;9.75;66.62;101791.19;1737859;82;21173;-47
2021/01/06 03:52:39;;;;;;;12.85;11.03;;;;;;;9.75;66.49;101797.69;1741943;82;21220;-47
2021/01/06 03:55:44;;;;;;;13.35;11.28;;;;;;;9.72;66.47;101800.30;1745841;82;21200;-47
2021/01/06 03:58:20;;;;;;;13.08;10.78;;;;;;;9.70;66.56;101799.44;1747872;82;21165;-47
2021/01/06 04:00:59;;;;;;;11.90;10.48;;;;;;;9.73;66.58;101803.31;1808462;79;23080;-46
2021/01/06 04:03:31;;;;;;;14.68;12.93;;;;;;;9.69;66.55;101813.29;1714939;83;21181;-46
2021/01/06 04:06:02;;;;;;;11.70;10.45;;;;;;;9.67;66.45;101811.12;1717436;83;21184;-47
2021/01/06 04:08:49;;;;;;;12.93;11.33;;;;;;;9.65;66.48;101821.95;1712423;83;21148;-47
2021/01/06 04:11:21;;;;;;;12.43;10.82;;;;;;;9.62;66.56;101821.10;1711249;83;21208;-47
2021/01/06 04:13:50;;;;;;;13.53;11.18;;;;;;;9.60;66.60;101821.08;1712666;83;21204;-47
2021/01/06 04:16:18;;;;;;;14.40;11.75;;;;;;;9.58;66.64;101822.81;1718077;83;21192;-47
2021/01/06 04:18:46;;;;;;;13.62;10.85;;;;;;;9.56;66.64;101823.25;1718559;83;21236;-47
2021/01/06 04:21:14;;;;;;;13.50;12.10;;;;;;;9.55;66.73;101820.23;1674734;83;21145;-47
2021/01/06 04:23:42;;;;;;;13.85;11.33;;;;;;;9.53;66.69;101823.27;1717218;83;21157;-47
2021/01/06 04:26:14;;;;;;;11.50;10.32;;;;;;;9.51;66.77;101826.30;1715972;83;21200;-46
2021/01/06 04:28:48;;;;;;;12.50;11.25;;;;;;;9.55;66.92;101824.13;1771694;79;23072;-47
2021/01/06 04:31:19;;;;;;;14.07;12.58;;;;;;;9.52;66.90;101830.62;1732836;82;21160;-47
2021/01/06 04:33:51;;;;;;;14.07;11.65;;;;;;;9.52;66.80;101848.80;1747181;82;21145;-47
2021/01/06 04:36:28;;;;;;;13.20;11.83;;;;;;;9.52;66.74;101846.20;1739089;82;21156;-47
2021/01/06 04:39:00;;;;;;;12.75;11.40;;;;;;;9.52;66.84;101855.76;1737306;82;21141;-47
2021/01/06 04:41:42;;;;;;;13.22;11.85;;;;;;;9.53;66.83;101858.34;1743841;82;21160;-47
2021/01/06 04:44:42;;;;;;;12.30;11.00;;;;;;;9.52;66.82;101853.16;1743881;82;21601;-47
2021/01/06 04:47:43;;;;;;;14.33;12.25;;;;;;;9.52;66.79;101852.70;1743051;82;21577;-47
2021/01/06 04:50:56;;;;;;;11.85;10.68;;;;;;;9.51;66.84;101856.61;1744705;82;21175;-47
2021/01/06 04:54:01;;;;;;;13.43;12.03;;;;;;;9.49;66.87;101853.14;1738594;82;21112;-47
2021/01/06 04:56:55;;;;;;;13.90;12.40;;;;;;;9.48;66.88;101862.66;1683974;85;21213;-47
2021/01/06 04:59:54;;;;;;;16.70;12.18;;;;;;;9.47;66.78;101857.48;1689236;85;21216;-47
2021/01/06 05:02:37;;;;;;;12.82;11.43;;;;;;;9.44;66.79;101860.93;1687685;85;21204;-47
2021/01/06 05:05:30;;;;;;;14.15;12.25;;;;;;;9.43;66.85;101861.81;1688915;85;21168;-47
2021/01/06 05:08:24;;;;;;;18.32;12.70;;;;;;;9.42;66.81;101867.86;1684223;85;21160;-47
2021/01/06 05:11:05;;;;;;;15.05;12.58;;;;;;;9.41;66.76;101871.34;1685120;85;21196;-47
2021/01/06 05:13:43;;;;;;;16.42;14.73;;;;;;;9.44;66.64;101872.62;1809744;79;23082;-47
2021/01/06 05:16:22;;;;;;;15.50;13.68;;;;;;;9.38;66.57;101875.22;1788461;80;21152;-47
2021/01/06 05:18:50;;;;;;;16.32;13.43;;;;;;;9.34;66.59;101874.78;1784593;80;21144;-47
2021/01/06 05:21:20;;;;;;;13.95;11.80;;;;;;;9.30;66.72;101880.84;1780571;80;21289;-47
2021/01/06 05:23:52;;;;;;;13.75;12.25;;;;;;;9.29;66.73;101889.51;1785583;80;21179;-47
2021/01/06 05:26:20;;;;;;;13.40;11.40;;;;;;;9.28;66.74;101898.15;1760312;80;21569;-47
2021/01/06 05:28:49;;;;;;;13.32;11.68;;;;;;;9.26;66.71;101897.28;1774831;80;21140;-46
2021/01/06 05:31:17;;;;;;;12.70;11.28;;;;;;;9.26;66.67;101897.28;1784000;80;21281;-46
2021/01/06 05:33:49;;;;;;;12.73;11.48;;;;;;;9.24;66.71;101904.20;1725739;83;21178;-47
2021/01/06 05:36:28;;;;;;;13.30;11.90;;;;;;;9.23;66.77;101908.98;1751851;81;21160;-47
2021/01/06 05:38:58;;;;;;;15.63;12.37;;;;;;;9.23;66.73;101923.27;1619638;87;21193;-47
2021/01/06 05:41:26;;;;;;;13.13;11.53;;;;;;;9.22;66.72;101924.53;1665693;85;21332;-47
2021/01/06 05:43:55;;;;;;;13.83;12.05;;;;;;;9.19;66.69;101927.14;1687590;85;21198;-46
2021/01/06 05:46:30;;;;;;;14.10;11.65;;;;;;;9.16;66.69;101933.19;1687956;85;21269;-46
2021/01/06 05:49:12;;;;;;;14.93;12.03;;;;;;;9.14;66.86;101934.91;1687979;85;21198;-46
2021/01/06 05:51:46;;;;;;;13.48;11.73;;;;;;;9.13;66.91;101933.62;1687867;85;21198;-47
2021/01/06 05:54:24;;;;;;;13.22;11.20;;;;;;;9.12;66.94;101939.66;1662614;85;21630;-46
2021/01/06 05:57:20;;;;;;;13.88;11.75;;;;;;;9.10;67.01;101934.47;1684624;85;21217;-47
2021/01/06 06:00:11;;;;;;;13.18;11.08;;;;;;;9.10;67.11;101934.47;1655953;86;21286;-46
2021/01/06 06:02:47;;;;;;;14.00;11.38;;;;;;;9.12;67.09;101929.27;1640982;87;21190;-46
2021/01/06 06:05:29;;;;;;;12.55;11.15;;;;;;;9.13;67.13;101938.81;1654697;87;21220;-46
2021/01/06 06:08:42;;;;;;;14.55;12.10;;;;;;;9.18;67.09;101937.95;1811704;79;23125;-47
2021/01/06 06:11:19;;;;;;;13.70;11.40;;;;;;;9.15;67.04;101939.69;1784767;80;21156;-47
2021/01/06 06:14:29;;;;;;;12.90;11.30;;;;;;;9.17;67.00;101942.70;1780848;80;21318;-47
2021/01/06 06:17:35;;;;;;;13.28;11.12;;;;;;;9.19;67.06;101944.02;1770719;80;21337;-47
2021/01/06 06:20:43;;;;;;;14.10;11.48;;;;;;;9.20;67.09;101944.02;1767469;80;21298;-47
2021/01/06 06:23:23;;;;;;;14.20;11.20;;;;;;;9.23;67.03;101953.13;1688854;84;21169;-47
2021/01/06 06:26:08;;;;;;;12.15;10.85;;;;;;;9.27;66.96;101958.77;1687071;84;21327;-47
2021/01/06 06:28:52;;;;;;;12.47;10.82;;;;;;;9.35;67.02;101964.84;1810162;79;22869;-47
2021/01/06 06:31:33;;;;;;;11.03;9.93;;;;;;;9.36;66.96;101963.97;1744468;80;21163;-46
2021/01/06 06:34:09;;;;;;;12.50;10.63;;;;;;;9.47;66.87;101962.27;1800258;79;23425;-46
2021/01/06 06:36:42;;;;;;;13.88;10.82;;;;;;;9.45;66.63;101969.20;1783636;80;21144;-47
2021/01/06 06:39:27;;;;;;;12.47;10.65;;;;;;;9.48;66.55;101971.78;1787244;80;21192;-47
2021/01/06 06:42:16;;;;;;;12.05;10.80;;;;;;;9.51;66.59;101977.00;1711549;84;21204;-47
2021/01/06 06:45:01;;;;;;;12.18;10.88;;;;;;;9.53;66.66;101972.67;1713498;84;21208;-47
2021/01/06 06:48:10;;;;;;;13.80;11.25;;;;;;;9.62;66.60;101977.86;1780985;79;23050;-46
2021/01/06 06:51:01;;;;;;;11.57;10.35;;;;;;;9.60;66.60;101983.95;1742112;82;21187;-47
2021/01/06 06:54:00;;;;;;;13.60;10.88;;;;;;;9.60;66.63;101982.19;1699139;84;21377;-47
2021/01/06 06:56:45;;;;;;;11.68;10.48;;;;;;;9.62;66.63;101985.66;1647551;87;21843;-47
2021/01/06 06:59:22;;;;;;;13.95;10.65;;;;;;;9.65;66.80;101990.00;1642867;87;21172;-47
2021/01/06 07:02:01;;;;;;;11.63;10.28;;;;;;;9.72;66.86;101984.84;1819381;79;23428;-47
2021/01/06 07:04:47;;;;;;;12.53;11.15;;;;;;;9.73;66.84;101990.88;1783820;80;21305;-47
2021/01/06 07:07:41;;;;;;;13.45;10.78;;;;;;;9.76;66.72;101989.17;1782911;80;21164;-47
2021/01/06 07:10:25;;;;;;;11.48;10.03;;;;;;;9.80;66.63;101994.81;1787399;80;21211;-47
2021/01/06 07:12:55;;;;;;;11.95;10.23;;;;;;;9.83;66.60;101997.39;1779922;80;21612;-47
2021/01/06 07:15:37;;;;;;;12.58;11.30;;;;;;;9.85;66.73;102000.86;1721075;83;21160;-47
2021/01/06 07:18:34;;;;;;;13.75;10.85;;;;;;;9.89;66.76;101998.28;1749286;81;21624;-47
2021/01/06 07:21:10;;;;;;;12.68;10.08;;;;;;;9.95;66.83;102009.98;1732903;82;21298;-47
2021/01/06 07:23:46;;;;;;;12.78;11.35;;;;;;;10.01;66.67;102012.58;1734660;82;21121;-47
2021/01/06 07:26:20;;;;;;;14.05;11.15;;;;;;;10.05;66.68;102007.81;1646763;86;21762;-47
2021/01/06 07:29:01;;;;;;;13.75;10.63;;;;;;;10.16;66.62;102013.94;1771619;79;23093;-47
2021/01/06 07:31:33;;;;;;;11.90;10.70;;;;;;;10.16;66.43;102022.58;1738433;82;21160;-47
2021/01/06 07:34:04;;;;;;;11.03;9.33;;;;;;;10.21;66.28;102022.16;1746855;82;21164;-47
2021/01/06 07:36:36;;;;;;;12.23;10.70;;;;;;;10.24;66.07;102027.34;1740167;82;21291;-47
2021/01/06 07:39:04;;;;;;;13.22;10.70;;;;;;;10.26;65.86;102032.56;1734692;82;21153;-47
2021/01/06 07:41:34;;;;;;;11.93;10.55;;;;;;;10.27;65.90;102032.98;1739633;82;21334;-47
2021/01/06 07:44:17;;;;;;;11.97;10.67;;;;;;;10.31;66.04;102028.21;1701587;82;21160;-47
2021/01/06 07:47:12;;;;;;;14.65;11.68;;;;;;;10.36;65.94;102026.49;1672078;86;21154;-47
2021/01/06 07:50:00;;;;;;;16.42;11.12;;;;;;;10.39;65.94;102032.55;1671938;86;21139;-47
2021/01/06 07:52:48;;;;;;;13.35;9.80;;;;;;;10.43;65.96;102031.67;1672694;85;21246;-47
2021/01/06 07:55:33;;;;;;;10.90;9.80;;;;;;;10.47;65.92;102026.02;1668743;84;21182;-47
2021/01/06 07:58:08;;;;;;;10.25;9.15;;;;;;;10.52;65.78;102025.17;1667813;86;21191;-47
2021/01/06 08:00:58;;;;;;;12.53;9.78;;;;;;;10.58;65.64;102022.98;1672617;86;21639;-47
2021/01/06 08:03:36;;;;;;;11.90;9.70;;;;;;;10.59;65.36;102019.53;1670433;85;21344;-47
2021/01/06 08:06:04;;;;;;;9.53;8.53;;;;;;;10.61;65.15;102026.44;1672455;86;21316;-47
2021/01/06 08:08:45;;;;;;;14.78;10.10;;;;;;;10.63;65.10;102027.30;1672431;86;21206;-47
2021/01/06 08:11:20;;;;;;;11.12;9.60;;;;;;;10.67;65.01;102027.31;1662618;86;21616;-47
2021/01/06 08:13:54;;;;;;;11.05;8.65;;;;;;;10.70;64.97;102022.95;1658765;86;21382;-47
2021/01/06 08:16:49;;;;;;;10.03;8.65;;;;;;;10.73;64.74;102022.09;1672717;86;21608;-47
2021/01/06 08:19:36;;;;;;;10.40;9.25;;;;;;;10.81;64.68;102019.91;1810170;79;23288;-47
2021/01/06 08:22:15;;;;;;;10.23;9.23;;;;;;;10.80;64.65;102020.76;1777705;80;21187;-47
2021/01/06 08:25:03;;;;;;;10.53;9.03;;;;;;;10.85;64.57;102020.33;1785924;80;21140;-47
2021/01/06 08:27:37;;;;;;;10.50;9.28;;;;;;;10.89;64.46;102020.75;1783552;80;21124;-47
2021/01/06 08:30:22;;;;;;;9.43;8.53;;;;;;;10.95;64.47;102024.63;1784330;80;21171;-47
2021/01/06 08:33:06;;;;;;;9.43;8.38;;;;;;;10.99;64.52;102025.05;1790682;80;21180;-47
2021/01/06 08:35:40;;;;;;;9.98;7.90;;;;;;;11.03;64.39;102022.87;1783045;80;21176;-45
2021/01/06 08:38:31;;;;;;;9.10;8.08;;;;;;;11.10;64.10;102033.70;1770347;80;21160;-45
2021/01/06 08:41:21;;;;;;;8.50;7.55;;;;;;;11.15;63.75;102025.42;1780226;80;21565;-48
2021/01/06 08:43:49;;;;;;;8.78;7.87;;;;;;;11.23;63.61;102026.25;1764584;80;21563;-45
2021/01/06 08:46:25;;;;;;;9.45;8.43;;;;;;;11.30;63.42;102035.80;1765542;80;21198;-46
2021/01/06 08:49:19;;;;;;;8.53;7.55;;;;;;;11.40;63.27;102027.05;1770856;79;23085;-47
2021/01/06 08:51:54;;;;;;;9.18;8.18;;;;;;;11.47;63.15;102035.71;1806747;79;22973;-47
2021/01/06 08:54:30;;;;;;;9.45;8.45;;;;;;;11.48;63.20;102035.28;1780199;80;21159;-47
2021/01/06 08:57:06;;;;;;;9.30;7.85;;;;;;;11.53;63.07;102032.20;1703596;83;21160;-47
2021/01/06 08:59:39;;;;;;;10.13;9.00;;;;;;;11.65;62.74;102032.12;1770550;79;23077;-47
2021/01/06 09:02:37;;;;;;;10.45;8.33;;;;;;;11.67;62.65;102033.89;1732236;82;21279;-47
2021/01/06 09:05:09;;;;;;;10.15;7.58;;;;;;;11.73;62.47;102038.19;1697836;82;21581;-47
2021/01/06 09:07:37;;;;;;;12.00;7.62;;;;;;;11.77;62.27;102037.30;1731907;82;21612;-47
2021/01/06 09:10:19;;;;;;;13.83;9.40;;;;;;;11.80;62.43;102033.37;1692782;82;21117;-47
2021/01/06 09:12:59;;;;;;;15.70;9.35;;;;;;;11.85;62.48;102025.10;1708243;82;21282;-47
2021/01/06 09:15:38;;;;;;;23.02;10.75;;;;;;;11.90;62.49;102020.70;1738817;82;21266;-47
2021/01/06 09:18:17;;;;;;;15.98;9.80;;;;;;;11.94;62.34;102013.28;1738747;82;21224;-47
2021/01/06 09:20:59;;;;;;;12.35;9.18;;;;;;;11.97;62.39;102014.58;1739296;82;21147;-47
2021/01/06 09:23:28;;;;;;;13.68;8.45;;;;;;;11.99;62.39;102012.82;1739626;82;21160;-47
2021/01/06 09:26:00;;;;;;;11.63;9.68;;;;;;;12.01;62.20;102014.98;1732596;82;21156;-47
2021/01/06 09:28:29;;;;;;;13.75;9.23;;;;;;;12.01;62.34;102019.73;1742542;82;21304;-47
2021/01/06 09:30:57;;;;;;;11.43;8.33;;;;;;;12.03;62.34;102022.36;1736742;82;21191;-47
2021/01/06 09:33:30;;;;;;;11.00;8.35;;;;;;;12.02;62.50;102013.66;1716713;82;21153;-47
2021/01/06 09:36:00;;;;;;;12.28;8.60;;;;;;;12.02;62.60;102007.56;1736932;82;21156;-47
2021/01/06 09:38:32;;;;;;;10.05;8.10;;;;;;;12.03;62.76;102004.09;1735053;82;21156;-47
2021/01/06 09:41:04;;;;;;;13.40;8.33;;;;;;;12.05;62.78;102008.86;1724236;82;21577;-48
2021/01/06 09:44:00;;;;;;;14.90;8.45;;;;;;;12.06;62.86;102005.36;1744769;82;21180;-47
2021/01/06 09:46:39;;;;;;;9.98;7.95;;;;;;;12.10;62.87;102000.53;1627247;87;21228;-47
2021/01/06 09:49:15;;;;;;;11.65;7.10;;;;;;;12.13;62.74;102000.53;1627118;88;21345;-47
2021/01/06 09:51:49;;;;;;;11.12;7.75;;;;;;;12.14;62.70;101998.33;1606010;88;21615;-47
2021/01/06 09:54:24;;;;;;;12.88;7.42;;;;;;;12.21;62.77;102002.20;1770025;79;23094;-47
2021/01/06 09:56:53;;;;;;;11.73;7.65;;;;;;;12.19;62.67;102000.04;1727402;82;21121;-47
2021/01/06 09:59:26;;;;;;;9.13;7.42;;;;;;;12.23;62.38;101996.95;1732096;82;21138;-47
2021/01/06 10:02:05;;;;;;;8.43;7.22;;;;;;;12.24;62.25;102001.31;1743789;82;21168;-47
2021/01/06 10:04:37;;;;;;;9.08;7.12;;;;;;;12.28;62.18;102000.41;1671879;85;21183;-47
2021/01/06 10:07:25;;;;;;;7.80;6.80;;;;;;;12.29;62.08;101995.59;1671782;86;21684;-47
2021/01/06 10:09:59;;;;;;;12.40;7.75;;;;;;;12.31;62.12;101996.45;1657746;86;21133;-47
2021/01/06 10:13:12;;;;;;;10.48;6.97;;;;;;;12.33;62.06;102003.82;1671730;86;21192;-47
2021/01/06 10:15:57;;;;;;;8.53;6.67;;;;;;;12.41;61.89;102003.30;1808522;79;22960;-47
2021/01/06 10:18:53;;;;;;;15.35;8.23;;;;;;;12.38;62.03;101999.44;1726978;83;21132;-47
2021/01/06 10:21:36;;;;;;;9.35;7.22;;;;;;;12.39;62.01;102006.37;1723195;83;21189;-48
2021/01/06 10:24:39;;;;;;;11.25;6.60;;;;;;;12.38;62.15;102004.66;1724081;83;21180;-47
2021/01/06 10:27:28;;;;;;;10.93;7.55;;;;;;;12.40;62.28;102001.59;1738801;81;21191;-47
2021/01/06 10:29:57;;;;;;;7.58;6.72;;;;;;;12.44;62.31;102007.64;1722704;83;21348;-47
2021/01/06 10:32:44;;;;;;;10.93;7.47;;;;;;;12.48;62.08;102008.03;1743735;81;21186;-48
2021/01/06 10:35:44;;;;;;;8.73;7.05;;;;;;;12.50;62.07;102006.27;1739704;81;21291;-47
2021/01/06 10:38:29;;;;;;;14.00;7.40;;;;;;;12.49;61.96;102005.41;1723596;83;21147;-47
2021/01/06 10:41:24;;;;;;;9.78;7.05;;;;;;;12.47;61.88;102008.94;1629230;86;21223;-47
2021/01/06 10:43:56;;;;;;;10.30;7.42;;;;;;;12.43;61.94;102013.30;1626123;86;21208;-47
2021/01/06 10:46:52;;;;;;;14.05;7.85;;;;;;;12.40;61.97;102005.51;1626098;86;21168;-47
2021/01/06 10:49:25;;;;;;;10.60;7.03;;;;;;;12.39;61.93;101997.67;1621592;87;21636;-47
2021/01/06 10:52:09;;;;;;;8.55;7.65;;;;;;;12.37;62.01;102000.30;1625812;87;21207;-47
2021/01/06 10:54:52;;;;;;;9.10;6.97;;;;;;;12.37;61.83;101997.69;1627302;87;21252;-47
2021/01/06 10:57:30;;;;;;;9.38;6.70;;;;;;;12.37;61.38;102000.30;1625286;87;21333;-47
2021/01/06 11:00:26;;;;;;;8.33;6.90;;;;;;;12.40;60.89;101995.50;1809524;79;22933;-47
2021/01/06 11:03:11;;;;;;;8.15;7.00;;;;;;;12.32;60.65;101995.58;1724800;83;21229;-47
2021/01/06 11:06:27;;;;;;;7.95;6.90;;;;;;;12.27;60.36;101994.74;1708278;84;21169;-47
2021/01/06 11:09:16;;;;;;;9.08;6.67;;;;;;;12.21;60.35;101990.89;1735967;82;22230;-47
2021/01/06 11:11:56;;;;;;;9.23;6.72;;;;;;;12.14;60.26;101997.02;1726725;82;21594;-47
2021/01/06 11:15:00;;;;;;;7.45;6.30;;;;;;;12.06;60.00;102001.44;1726918;82;21319;-48
2021/01/06 11:17:36;;;;;;;5.85;5.20;;;;;;;11.99;60.01;102003.69;1725133;82;21584;-47
2021/01/06 11:20:33;;;;;;;7.75;6.40;;;;;;;11.98;60.12;101998.03;1770662;79;23064;-47
2021/01/06 11:23:30;;;;;;;10.55;7.03;;;;;;;11.92;60.06;102000.69;1741539;82;21176;-47
2021/01/06 11:26:30;;;;;;;9.63;6.62;;;;;;;11.91;59.96;101997.20;1734515;82;21307;-47
2021/01/06 11:29:16;;;;;;;8.45;6.42;;;;;;;11.89;59.86;101988.99;1744901;82;21109;-47
2021/01/06 11:32:22;;;;;;;14.38;6.42;;;;;;;11.88;59.67;101996.37;1743929;81;21147;-47
2021/01/06 11:34:55;;;;;;;6.05;5.20;;;;;;;11.84;59.36;101986.84;1731923;82;21342;-47
2021/01/06 11:37:32;;;;;;;7.08;5.72;;;;;;;11.80;59.35;101998.17;1730875;82;21299;-47
2021/01/06 11:40:00;;;;;;;8.43;6.53;;;;;;;11.79;59.48;101991.21;1672744;84;21168;-47
2021/01/06 11:42:51;;;;;;;7.95;6.05;;;;;;;11.80;59.76;101992.95;1672547;86;21230;-46
2021/01/06 11:45:23;;;;;;;8.48;7.00;;;;;;;11.81;60.15;101990.33;1657113;86;21178;-46
2021/01/06 11:47:59;;;;;;;10.88;7.03;;;;;;;11.84;60.52;101986.84;1672339;86;21309;-46
2021/01/06 11:50:44;;;;;;;12.23;6.20;;;;;;;11.88;60.69;101983.33;1672707;86;21215;-46
2021/01/06 11:53:32;;;;;;;6.05;5.17;;;;;;;11.92;60.65;101989.83;1654902;86;21178;-46
2021/01/06 11:56:23;;;;;;;8.50;6.37;;;;;;;11.97;59.96;101998.92;1672476;86;21190;-47
2021/01/06 11:59:28;;;;;;;8.05;6.75;;;;;;;12.04;59.71;101991.45;1650234;86;21151;-47
2021/01/06 12:02:14;;;;;;;7.37;6.50;;;;;;;12.11;59.55;101992.72;1672302;85;21317;-47
2021/01/06 12:05:24;;;;;;;7.30;5.78;;;;;;;12.21;59.40;101990.89;1805727;78;23083;-46
2021/01/06 12:08:32;;;;;;;10.05;6.28;;;;;;;12.18;59.45;101994.81;1783200;80;21608;-46
2021/01/06 12:11:10;;;;;;;7.72;5.85;;;;;;;12.17;59.52;101996.58;1779977;80;21600;-46
2021/01/06 12:14:06;;;;;;;6.20;5.40;;;;;;;12.17;59.64;101994.41;1788311;80;21180;-46